Marshall, Alaska
Current Conditions -  °F | °C
As of 8:56 AM on Thursday 30 Oct 2014 (Local Time) from PADM Reporting Station
Overcast Overcast  
Wind Chill: 16°   Ceiling: 2900
Heat Index: 25°   Visibility: 10mi
Dew Point: 16°   Wind: 9mph
Humidity: 69%   Direction: 20°NNE
Pressure: 29.94"   Gusts: NA
Location:  61.88°N, 162.08°W
Report Text: PADM 301656Z AUTO 02008KT 10SM OVC029 M04/M09 A2994 RMK AO2 TSNO T10381088 OVC V BKN SLP129 $
Loading
Personal Weather Stations






























Interactive Weather Map
Tropical Storm Tracking
New forecast layout! Learn more

10-Day Weather Forecast

Advertisements
Track Severe Weather on mobile